Search for airport 
image banner adimage banner adimage banner ad
image banner ad

EDYS - Arkona

Located in , Germany

ICAO - , IATA -

Data provided by Airmate  

General information

Coordinates: N54°47'13" E14°5'54"
Elevation is feet MSL.
 
View others Airports in Mecklenburg-Vorpommern

Operational data

Special qualification required
Current time UTC:
Current local time:
Weather at : EKRN - Bornholm/Roenne ( 52 km )
METAR: EKRN 052350Z AUTO 26025G36KT 9999 DZ OVC014/// 06/04 Q0994
TAF: TAF AMD EKRN 051825Z 0518/0521 22020KT 9999 BKN020 TEMPO 0518/0521 24025G38KT SHRA BKN008 BKN015CB
View NOTAMs / SUP AIP / TFR affecting this airport [VIEW]
Communications frequencies: [VIEW]

Runways:

Airport contact information

Address: Germany

Satellite view of EDYS